Time;durP1;ratioP1;P1;durP2;ratioP2;P2;SDS_P1;SDS_P2;PMS_P1;PMS_P2;Temp;Humidity;BMP_temperature;BMP_pressure;BME280_temperature;BME280_humidity;BME280_pressure;Samples;Min_cycle;Max_cycle;Signal;HPM_P1;HPM_P2
2021/12/14 00:01:34;;;;;;;;;;;;;;;;;;5004102;28;20262;-80
2021/12/14 00:04:02;;;;;;;;;;;;;;;;;;5014212;28;19924;-82
2021/12/14 00:06:28;;;;;;;;;;;;;;;;;;5021990;28;19917;-81
2021/12/14 00:09:00;;;;;;;;;;;;;;;;;;4997336;28;19935;-82
2021/12/14 00:11:54;;;;;;;;;;;;;;;;;;5022296;28;19916;-81
2021/12/14 00:17:17;;;;;;;;;;;;;;;;;;4975492;28;19925;-81
2021/12/14 00:19:44;;;;;;;;;;;;;;;;;;4977242;28;20044;-83
2021/12/14 00:22:29;;;;;;;;;;;;;;;;;;4963470;28;20185;-79
2021/12/14 00:25:04;;;;;;;;;;;;;;;;;;4970831;28;19928;-82
2021/12/14 00:27:32;;;;;;;;;;;;;;;;;;4983458;28;20121;-82
2021/12/14 00:29:59;;;;;;;;;;;;;;;;;;4963402;28;19976;-82
2021/12/14 00:32:25;;;;;;;;;;;;;;;;;;4983435;28;19982;-80
2021/12/14 00:34:52;;;;;;;;;;;;;;;;;;4982288;28;19929;-82
2021/12/14 00:37:19;;;;;;;;;;;;;;;;;;4980845;28;19921;-82
2021/12/14 00:39:45;;;;;;;;;;;;;;;;;;4976654;28;19921;-82
2021/12/14 00:42:11;;;;;;;;;;;;;;;;;;4967068;28;19918;-82
2021/12/14 00:44:37;;;;;;;;;;;;;;;;;;4981491;28;19921;-81
2021/12/14 00:47:03;;;;;;;;;;;;;;;;;;5003279;28;19928;-82
2021/12/14 00:49:30;;;;;;;;;;;;;;;;;;5021615;28;20634;-82
2021/12/14 00:51:56;;;;;;;;;;;;;;;;;;5023272;28;19920;-81
2021/12/14 00:54:22;;;;;;;;;;;;;;;;;;5030789;28;19909;-82
2021/12/14 00:56:49;;;;;;;;;;;;;;;;;;5010032;28;19912;-82
2021/12/14 00:59:15;;;;;;;;;;;;;;;;;;5021636;28;19921;-82
2021/12/14 01:01:42;;;;;;;;;;;;;;;;;;5042339;28;19912;-83
2021/12/14 01:04:10;;;;;;;;;;;;;;;;;;5042066;28;19931;-81
2021/12/14 01:06:36;;;;;;;;;;;;;;;;;;5035979;28;24770;-81
2021/12/14 01:09:04;;;;;;;;;;;;;;;;;;5007029;28;21299;-81
2021/12/14 01:11:34;;;;;;;;;;;;;;;;;;5004403;28;19917;-81
2021/12/14 01:14:05;;;;;;;;;;;;;;;;;;5002358;28;20007;-81
2021/12/14 01:16:35;;;;;;;;;;;;;;;;;;5011492;28;19921;-81
2021/12/14 01:19:13;;;;;;;;;;;;;;;;;;4999709;28;20237;-81
2021/12/14 01:22:01;;;;;;;;;;;;;;;;;;4984405;28;19959;-81
2021/12/14 01:25:00;;;;;;;;;;;;;;;;;;5003643;28;19924;-81
2021/12/14 01:27:23;;;;;;;;;;;;;;;;;;5001000;28;19955;-81
2021/12/14 01:29:52;;;;;;;;;;;;;;;;;;4997125;28;20118;-81
2021/12/14 01:32:22;;;;;;;;;;;;;;;;;;4982714;28;20016;-80
2021/12/14 01:34:50;;;;;;;;;;;;;;;;;;4996522;28;19921;-81
2021/12/14 01:37:20;;;;;;;;;;;;;;;;;;4982463;28;19924;-81
2021/12/14 01:40:04;;;;;;;;;;;;;;;;;;4995132;28;19923;-83
2021/12/14 01:42:32;;;;;;;;;;;;;;;;;;4990797;28;19916;-80
2021/12/14 01:44:59;;;;;;;;;;;;;;;;;;4997520;28;19924;-80
2021/12/14 01:47:25;;;;;;;;;;;;;;;;;;4996428;28;19917;-80
2021/12/14 01:49:52;;;;;;;;;;;;;;;;;;5000915;28;19931;-81
2021/12/14 01:52:19;;;;;;;;;;;;;;;;;;4988072;28;19924;-83
2021/12/14 01:54:46;;;;;;;;;;;;;;;;;;4981637;28;19921;-80
2021/12/14 01:57:25;;;;;;;;;;;;;;;;;;4988470;28;19913;-80
2021/12/14 01:59:56;;;;;;;;;;;;;;;;;;4968573;28;20029;-83
2021/12/14 02:02:30;;;;;;;;;;;;;;;;;;5016751;28;19991;-81
2021/12/14 02:04:59;;;;;;;;;;;;;;;;;;5018061;28;19916;-82
2021/12/14 02:07:26;;;;;;;;;;;;;;;;;;5028737;28;20055;-80
2021/12/14 02:09:52;;;;;;;;;;;;;;;;;;5003465;28;19976;-81
2021/12/14 02:12:21;;;;;;;;;;;;;;;;;;5019124;28;19913;-81
2021/12/14 02:14:48;;;;;;;;;;;;;;;;;;5021062;28;20007;-81
2021/12/14 02:17:15;;;;;;;;;;;;;;;;;;5003412;28;19931;-81
2021/12/14 02:19:41;;;;;;;;;;;;;;;;;;5023826;28;19944;-81
2021/12/14 02:22:07;;;;;;;;;;;;;;;;;;5000857;28;20379;-82
2021/12/14 02:24:34;;;;;;;;;;;;;;;;;;5023673;28;19919;-81
2021/12/14 02:27:01;;;;;;;;;;;;;;;;;;4985980;28;20762;-81
2021/12/14 02:29:27;;;;;;;;;;;;;;;;;;5002316;28;19923;-80
2021/12/14 02:31:54;;;;;;;;;;;;;;;;;;5005619;28;19917;-81
2021/12/14 02:34:20;;;;;;;;;;;;;;;;;;5025938;28;19921;-81
2021/12/14 02:36:46;;;;;;;;;;;;;;;;;;5032250;28;19927;-81
2021/12/14 02:39:23;;;;;;;;;;;;;;;;;;5019649;28;19913;-81
2021/12/14 02:41:50;;;;;;;;;;;;;;;;;;5007351;28;19925;-81
2021/12/14 02:44:17;;;;;;;;;;;;;;;;;;5007293;28;19947;-81
2021/12/14 02:46:43;;;;;;;;;;;;;;;;;;5021737;28;19921;-81
2021/12/14 02:49:10;;;;;;;;;;;;;;;;;;5025146;28;19925;-83
2021/12/14 02:51:36;;;;;;;;;;;;;;;;;;5009440;28;19948;-80
2021/12/14 02:54:03;;;;;;;;;;;;;;;;;;5020346;28;19916;-83
2021/12/14 02:56:29;;;;;;;;;;;;;;;;;;5006327;28;19921;-81
2021/12/14 02:58:55;;;;;;;;;;;;;;;;;;5004363;28;19924;-81
2021/12/14 03:01:22;;;;;;;;;;;;;;;;;;5006547;28;19924;-81
2021/12/14 03:03:48;;;;;;;;;;;;;;;;;;5007564;28;19935;-81
2021/12/14 03:06:19;;;;;;;;;;;;;;;;;;5005193;28;20228;-83
2021/12/14 03:08:56;;;;;;;;;;;;;;;;;;5003882;28;19925;-81
2021/12/14 03:11:22;;;;;;;;;;;;;;;;;;5025332;28;19916;-82
2021/12/14 03:13:50;;;;;;;;;;;;;;;;;;5023987;28;19966;-83
2021/12/14 03:16:16;;;;;;;;;;;;;;;;;;5027935;28;19916;-82
2021/12/14 03:18:42;;;;;;;;;;;;;;;;;;5006033;28;19927;-80
2021/12/14 03:21:08;;;;;;;;;;;;;;;;;;5008359;28;20314;-80
2021/12/14 03:23:34;;;;;;;;;;;;;;;;;;5016807;28;20440;-81
2021/12/14 03:26:01;;;;;;;;;;;;;;;;;;5024593;28;19920;-81
2021/12/14 03:28:27;;;;;;;;;;;;;;;;;;5029961;28;19916;-80
2021/12/14 03:30:54;;;;;;;;;;;;;;;;;;5022469;28;20906;-80
2021/12/14 03:33:20;;;;;;;;;;;;;;;;;;5025935;28;19917;-81
2021/12/14 03:35:45;;;;;;;;;;;;;;;;;;5006183;28;19919;-81
2021/12/14 03:38:13;;;;;;;;;;;;;;;;;;5004263;28;20240;-81
2021/12/14 03:40:41;;;;;;;;;;;;;;;;;;5009835;28;19927;-80
2021/12/14 03:43:08;;;;;;;;;;;;;;;;;;5021894;28;19920;-81
2021/12/14 03:45:35;;;;;;;;;;;;;;;;;;5003156;28;19967;-81
2021/12/14 03:48:01;;;;;;;;;;;;;;;;;;5006919;28;19913;-82
2021/12/14 03:50:27;;;;;;;;;;;;;;;;;;5022118;28;19943;-83
2021/12/14 03:52:54;;;;;;;;;;;;;;;;;;5024192;28;20615;-81
2021/12/14 03:55:21;;;;;;;;;;;;;;;;;;5025667;28;20443;-80
2021/12/14 03:57:47;;;;;;;;;;;;;;;;;;5007505;28;19920;-81
2021/12/14 04:00:14;;;;;;;;;;;;;;;;;;5024514;28;20301;-80
2021/12/14 04:02:41;;;;;;;;;;;;;;;;;;5023092;28;20530;-80
2021/12/14 04:05:11;;;;;;;;;;;;;;;;;;5010820;28;21832;-83
2021/12/14 04:07:37;;;;;;;;;;;;;;;;;;5025329;28;19916;-81
2021/12/14 04:10:03;;;;;;;;;;;;;;;;;;5021813;28;19931;-79
2021/12/14 04:12:29;;;;;;;;;;;;;;;;;;5024044;28;20337;-80
2021/12/14 04:14:57;;;;;;;;;;;;;;;;;;5019105;28;19913;-80
2021/12/14 04:17:24;;;;;;;;;;;;;;;;;;5018276;28;19983;-80
2021/12/14 04:19:50;;;;;;;;;;;;;;;;;;5005148;28;19912;-81
2021/12/14 04:22:16;;;;;;;;;;;;;;;;;;5023422;28;19924;-82
2021/12/14 04:24:44;;;;;;;;;;;;;;;;;;5004298;28;19916;-81
2021/12/14 04:27:12;;;;;;;;;;;;;;;;;;5023958;28;20023;-80
2021/12/14 04:29:39;;;;;;;;;;;;;;;;;;5007640;28;19916;-80
2021/12/14 04:32:05;;;;;;;;;;;;;;;;;;5002289;28;19920;-83
2021/12/14 04:34:31;;;;;;;;;;;;;;;;;;5005024;28;20382;-82
2021/12/14 04:36:59;;;;;;;;;;;;;;;;;;5019155;28;19917;-83
2021/12/14 04:53:10;;;;;;;;;;;;;;;;;;4930327;28;19997;-82
2021/12/14 04:55:46;;;;;;;;;;;;;;;;;;4923878;28;21269;-82
2021/12/14 04:58:12;;;;;;;;;;;;;;;;;;4905699;29;20408;-82
2021/12/14 05:00:39;;;;;;;;;;;;;;;;;;4930953;28;20377;-82
2021/12/14 05:03:06;;;;;;;;;;;;;;;;;;4923570;28;19926;-80
2021/12/14 05:05:32;;;;;;;;;;;;;;;;;;4931740;28;19918;-81
2021/12/14 05:10:44;;;;;;;;;;;;;;;;;;4926236;28;19925;-81
2021/12/14 05:13:10;;;;;;;;;;;;;;;;;;4913978;28;20005;-80
2021/12/14 05:15:37;;;;;;;;;;;;;;;;;;4918564;28;20400;-82
2021/12/14 05:18:05;;;;;;;;;;;;;;;;;;4939018;28;20038;-81
2021/12/14 05:20:31;;;;;;;;;;;;;;;;;;5016751;28;20003;-81
2021/12/14 05:22:57;;;;;;;;;;;;;;;;;;5006063;28;20579;-81
2021/12/14 05:25:25;;;;;;;;;;;;;;;;;;5011761;28;19941;-81
2021/12/14 05:27:52;;;;;;;;;;;;;;;;;;4995070;28;20473;-81
2021/12/14 05:30:18;;;;;;;;;;;;;;;;;;4994879;28;19917;-81
2021/12/14 05:32:45;;;;;;;;;;;;;;;;;;5003692;28;19920;-81
2021/12/14 05:35:12;;;;;;;;;;;;;;;;;;5006292;28;19917;-81
2021/12/14 05:37:52;;;;;;;;;;;;;;;;;;5010012;28;19917;-81
2021/12/14 05:41:13;;;;;;;;;;;;;;;;;;5004345;28;19924;-81
2021/12/14 05:43:10;;;;;;;;;;;;;;;;;;4997290;28;20003;-81
2021/12/14 05:45:38;;;;;;;;;;;;;;;;;;5013473;28;19938;-81
2021/12/14 05:48:05;;;;;;;;;;;;;;;;;;5019586;28;20395;-80
2021/12/14 05:50:32;;;;;;;;;;;;;;;;;;5029483;28;20699;-83
2021/12/14 05:52:58;;;;;;;;;;;;;;;;;;5017282;28;19923;-83
2021/12/14 05:55:25;;;;;;;;;;;;;;;;;;5023726;28;19921;-83
2021/12/14 05:57:54;;;;;;;;;;;;;;;;;;5023875;28;19920;-81
2021/12/14 06:00:21;;;;;;;;;;;;;;;;;;5005966;28;20663;-80
2021/12/14 06:02:47;;;;;;;;;;;;;;;;;;5003888;28;20303;-83
2021/12/14 06:05:14;;;;;;;;;;;;;;;;;;5008315;28;19974;-80
2021/12/14 06:07:41;;;;;;;;;;;;;;;;;;5021694;28;19917;-83
2021/12/14 06:10:09;;;;;;;;;;;;;;;;;;5026369;28;20028;-81
2021/12/14 06:12:35;;;;;;;;;;;;;;;;;;5009345;28;19956;-83
2021/12/14 06:15:02;;;;;;;;;;;;;;;;;;5021100;28;20719;-81
2021/12/14 06:17:30;;;;;;;;;;;;;;;;;;5029138;28;19948;-81
2021/12/14 06:19:57;;;;;;;;;;;;;;;;;;4991936;28;20024;-80
2021/12/14 06:22:24;;;;;;;;;;;;;;;;;;4986738;28;19921;-83
2021/12/14 06:24:50;;;;;;;;;;;;;;;;;;5013941;28;19999;-83
2021/12/14 06:27:16;;;;;;;;;;;;;;;;;;5006339;28;19912;-81
2021/12/14 06:29:42;;;;;;;;;;;;;;;;;;4991878;28;20420;-83
2021/12/14 06:32:09;;;;;;;;;;;;;;;;;;5025948;28;19923;-83
2021/12/14 06:34:36;;;;;;;;;;;;;;;;;;5013961;28;19964;-84
2021/12/14 06:37:04;;;;;;;;;;;;;;;;;;5041858;28;19920;-82
2021/12/14 06:39:30;;;;;;;;;;;;;;;;;;5028693;28;19917;-81
2021/12/14 06:41:57;;;;;;;;;;;;;;;;;;5031377;28;19936;-82
2021/12/14 06:44:24;;;;;;;;;;;;;;;;;;5012314;28;20022;-81
2021/12/14 06:46:51;;;;;;;;;;;;;;;;;;5020854;28;20357;-82
2021/12/14 06:49:18;;;;;;;;;;;;;;;;;;5026345;28;19920;-81
2021/12/14 06:51:44;;;;;;;;;;;;;;;;;;5004730;28;20371;-81
2021/12/14 06:54:10;;;;;;;;;;;;;;;;;;5010096;28;21154;-81
2021/12/14 06:56:36;;;;;;;;;;;;;;;;;;5025247;28;20622;-81
2021/12/14 06:59:02;;;;;;;;;;;;;;;;;;5004200;28;19994;-81
2021/12/14 07:01:28;;;;;;;;;;;;;;;;;;5006786;28;19932;-82
2021/12/14 07:03:54;;;;;;;;;;;;;;;;;;5020509;28;19933;-82
2021/12/14 07:06:20;;;;;;;;;;;;;;;;;;5007902;28;19913;-81
2021/12/14 07:08:46;;;;;;;;;;;;;;;;;;5005672;28;19952;-83
2021/12/14 07:11:12;;;;;;;;;;;;;;;;;;5030928;28;20431;-84
2021/12/14 07:13:39;;;;;;;;;;;;;;;;;;5030439;28;19917;-84
2021/12/14 07:16:05;;;;;;;;;;;;;;;;;;5030799;28;19916;-83
2021/12/14 07:18:35;;;;;;;;;;;;;;;;;;5024564;28;19913;-80
2021/12/14 07:21:01;;;;;;;;;;;;;;;;;;5018794;28;20003;-83
2021/12/14 07:23:28;;;;;;;;;;;;;;;;;;5003997;28;19959;-83
2021/12/14 07:25:54;;;;;;;;;;;;;;;;;;5003795;28;19923;-83
2021/12/14 07:28:20;;;;;;;;;;;;;;;;;;5024039;28;19973;-81
2021/12/14 07:30:46;;;;;;;;;;;;;;;;;;5018756;28;19921;-81
2021/12/14 07:33:12;;;;;;;;;;;;;;;;;;5025857;28;19913;-80
2021/12/14 07:35:38;;;;;;;;;;;;;;;;;;5002410;28;19916;-81
2021/12/14 07:38:04;;;;;;;;;;;;;;;;;;5002256;28;20402;-83
2021/12/14 07:40:30;;;;;;;;;;;;;;;;;;5003588;28;20019;-83
2021/12/14 07:42:56;;;;;;;;;;;;;;;;;;5000621;28;19952;-83
2021/12/14 07:45:22;;;;;;;;;;;;;;;;;;5018206;28;19919;-83
2021/12/14 07:47:48;;;;;;;;;;;;;;;;;;5000192;28;20379;-82
2021/12/14 07:50:14;;;;;;;;;;;;;;;;;;5002280;28;20417;-82
2021/12/14 07:52:40;;;;;;;;;;;;;;;;;;5003240;28;19920;-82
2021/12/14 07:55:06;;;;;;;;;;;;;;;;;;5000820;28;19925;-82
2021/12/14 07:57:32;;;;;;;;;;;;;;;;;;5005978;28;19913;-82
2021/12/14 07:59:58;;;;;;;;;;;;;;;;;;5019409;28;19916;-83
2021/12/14 08:02:24;;;;;;;;;;;;;;;;;;5028457;28;19917;-82
2021/12/14 08:04:50;;;;;;;;;;;;;;;;;;5007794;28;19924;-81
2021/12/14 08:07:16;;;;;;;;;;;;;;;;;;5005642;28;19967;-82
2021/12/14 08:09:53;;;;;;;;;;;;;;;;;;5005942;28;19923;-83
2021/12/14 08:12:19;;;;;;;;;;;;;;;;;;5000702;28;19917;-82
2021/12/14 08:14:45;;;;;;;;;;;;;;;;;;5016159;28;19912;-82
2021/12/14 08:17:11;;;;;;;;;;;;;;;;;;5022071;28;19924;-81
2021/12/14 08:19:37;;;;;;;;;;;;;;;;;;5006823;28;19969;-82
2021/12/14 08:22:03;;;;;;;;;;;;;;;;;;5022065;28;22060;-81
2021/12/14 08:24:29;;;;;;;;;;;;;;;;;;5026850;28;20371;-82
2021/12/14 08:26:55;;;;;;;;;;;;;;;;;;5025766;28;19963;-81
2021/12/14 08:29:21;;;;;;;;;;;;;;;;;;5026519;28;19921;-81
2021/12/14 08:31:47;;;;;;;;;;;;;;;;;;5023468;28;19932;-82
2021/12/14 08:34:13;;;;;;;;;;;;;;;;;;5026627;28;19912;-83
2021/12/14 08:36:39;;;;;;;;;;;;;;;;;;5009987;28;19923;-82
2021/12/14 08:39:05;;;;;;;;;;;;;;;;;;5026800;28;19986;-81
2021/12/14 08:41:31;;;;;;;;;;;;;;;;;;5006893;28;20371;-81
2021/12/14 08:43:57;;;;;;;;;;;;;;;;;;4997466;28;19921;-81
2021/12/14 08:46:23;;;;;;;;;;;;;;;;;;5019970;28;19917;-83
2021/12/14 08:48:51;;;;;;;;;;;;;;;;;;4985835;28;20509;-81
2021/12/14 08:51:17;;;;;;;;;;;;;;;;;;5005253;28;20023;-83
2021/12/14 08:53:43;;;;;;;;;;;;;;;;;;5000471;28;19909;-81
2021/12/14 08:56:11;;;;;;;;;;;;;;;;;;4999775;28;19917;-84
2021/12/14 08:58:37;;;;;;;;;;;;;;;;;;5007442;28;19969;-83
2021/12/14 09:01:03;;;;;;;;;;;;;;;;;;5016256;28;19921;-83
2021/12/14 09:03:32;;;;;;;;;;;;;;;;;;5003339;28;20264;-80
2021/12/14 09:05:58;;;;;;;;;;;;;;;;;;5015535;28;20289;-83
2021/12/14 09:08:24;;;;;;;;;;;;;;;;;;5015895;28;19986;-82
2021/12/14 09:10:50;;;;;;;;;;;;;;;;;;5015462;28;19955;-82
2021/12/14 09:13:16;;;;;;;;;;;;;;;;;;5005667;28;20028;-82
2021/12/14 09:15:42;;;;;;;;;;;;;;;;;;5001809;28;20019;-82
2021/12/14 09:18:08;;;;;;;;;;;;;;;;;;5004725;28;19912;-82
2021/12/14 09:20:35;;;;;;;;;;;;;;;;;;5016719;28;19924;-83
2021/12/14 09:23:00;;;;;;;;;;;;;;;;;;5021809;28;20024;-82
2021/12/14 09:25:28;;;;;;;;;;;;;;;;;;5011954;28;20076;-83
2021/12/14 09:27:54;;;;;;;;;;;;;;;;;;5019522;28;19938;-82
2021/12/14 09:30:20;;;;;;;;;;;;;;;;;;5023515;28;19920;-82
2021/12/14 09:32:47;;;;;;;;;;;;;;;;;;5018517;28;19915;-81
2021/12/14 09:35:16;;;;;;;;;;;;;;;;;;4985076;28;19918;-82
2021/12/14 09:37:42;;;;;;;;;;;;;;;;;;4967992;28;19918;-82
2021/12/14 09:40:08;;;;;;;;;;;;;;;;;;4975962;28;19922;-82
2021/12/14 09:42:35;;;;;;;;;;;;;;;;;;4966850;28;19957;-82
2021/12/14 09:45:01;;;;;;;;;;;;;;;;;;4976358;28;19913;-82
2021/12/14 09:47:29;;;;;;;;;;;;;;;;;;4983256;28;20449;-82
2021/12/14 09:49:57;;;;;;;;;;;;;;;;;;4961056;28;19931;-82
2021/12/14 09:52:24;;;;;;;;;;;;;;;;;;4966043;28;19984;-82
2021/12/14 09:54:51;;;;;;;;;;;;;;;;;;4974962;28;19917;-82
2021/12/14 09:57:19;;;;;;;;;;;;;;;;;;4981481;28;20017;-82
2021/12/14 09:59:46;;;;;;;;;;;;;;;;;;4975223;28;19988;-82
2021/12/14 10:02:14;;;;;;;;;;;;;;;;;;4980521;28;19963;-82
2021/12/14 10:04:40;;;;;;;;;;;;;;;;;;4979374;28;19921;-82
2021/12/14 10:07:08;;;;;;;;;;;;;;;;;;4965885;28;20123;-83
2021/12/14 10:09:41;;;;;;;;;;;;;;;;;;4983180;28;19920;-83
2021/12/14 10:12:30;;;;;;;;;;;;;;;;;;4981741;28;20007;-83
2021/12/14 10:14:57;;;;;;;;;;;;;;;;;;4980725;28;19995;-84
2021/12/14 10:17:24;;;;;;;;;;;;;;;;;;4982315;28;19917;-83
2021/12/14 10:19:51;;;;;;;;;;;;;;;;;;4977034;28;19921;-83
2021/12/14 10:22:21;;;;;;;;;;;;;;;;;;4980440;28;20391;-83
2021/12/14 10:24:50;;;;;;;;;;;;;;;;;;4967598;28;19924;-81
2021/12/14 10:27:16;;;;;;;;;;;;;;;;;;5023705;28;19909;-81
2021/12/14 10:29:44;;;;;;;;;;;;;;;;;;5021662;28;19908;-82
2021/12/14 10:32:10;;;;;;;;;;;;;;;;;;5004577;28;19963;-82
2021/12/14 10:34:36;;;;;;;;;;;;;;;;;;5024053;28;20532;-81
2021/12/14 10:37:09;;;;;;;;;;;;;;;;;;4991031;28;20221;-82
2021/12/14 10:39:41;;;;;;;;;;;;;;;;;;5002698;28;20398;-82
2021/12/14 10:44:53;;;;;;;;;;;;;;;;;;4997164;28;19927;-80
2021/12/14 10:47:20;;;;;;;;;;;;;;;;;;5011340;28;19921;-82
2021/12/14 10:49:46;;;;;;;;;;;;;;;;;;5022501;28;20390;-83
2021/12/14 10:52:14;;;;;;;;;;;;;;;;;;5025187;28;19916;-82
2021/12/14 10:54:41;;;;;;;;;;;;;;;;;;5025516;28;19924;-82
2021/12/14 10:57:07;;;;;;;;;;;;;;;;;;5006701;28;19913;-82
2021/12/14 10:59:36;;;;;;;;;;;;;;;;;;5028402;28;19916;-82
2021/12/14 11:02:03;;;;;;;;;;;;;;;;;;5023695;28;22971;-82
2021/12/14 11:04:40;;;;;;;;;;;;;;;;;;5010457;28;19960;-83
2021/12/14 11:07:08;;;;;;;;;;;;;;;;;;5006898;28;19952;-83
2021/12/14 11:12:07;;;;;;;;;;;;;;;;;;5019781;28;20443;-83
2021/12/14 11:14:34;;;;;;;;;;;;;;;;;;5021147;28;19923;-83
2021/12/14 11:19:46;;;;;;;;;;;;;;;;;;5019884;28;19962;-83
2021/12/14 11:22:12;;;;;;;;;;;;;;;;;;5020499;28;19947;-83
2021/12/14 11:24:39;;;;;;;;;;;;;;;;;;5027373;28;19928;-83
2021/12/14 11:27:07;;;;;;;;;;;;;;;;;;5021732;28;19913;-83
2021/12/14 11:29:34;;;;;;;;;;;;;;;;;;5020245;28;20424;-83
2021/12/14 11:32:02;;;;;;;;;;;;;;;;;;5002105;28;19917;-83
2021/12/14 11:34:30;;;;;;;;;;;;;;;;;;5004095;28;20500;-83
2021/12/14 11:36:56;;;;;;;;;;;;;;;;;;5002782;28;19917;-83
2021/12/14 11:39:24;;;;;;;;;;;;;;;;;;5024011;28;19993;-83
2021/12/14 11:41:52;;;;;;;;;;;;;;;;;;5021312;28;19912;-84
2021/12/14 11:44:20;;;;;;;;;;;;;;;;;;5005316;28;19920;-83
2021/12/14 11:46:46;;;;;;;;;;;;;;;;;;5020726;28;20023;-84
2021/12/14 11:49:15;;;;;;;;;;;;;;;;;;5021764;28;19925;-83
2021/12/14 11:51:41;;;;;;;;;;;;;;;;;;5004781;28;19952;-83
2021/12/14 11:54:08;;;;;;;;;;;;;;;;;;5020062;28;19921;-83
2021/12/14 11:56:34;;;;;;;;;;;;;;;;;;5024157;28;20302;-83
2021/12/14 11:59:01;;;;;;;;;;;;;;;;;;5020169;28;20338;-84
2021/12/14 12:01:28;;;;;;;;;;;;;;;;;;5014964;28;19960;-84
2021/12/14 12:03:56;;;;;;;;;;;;;;;;;;5018079;28;19920;-84
2021/12/14 12:06:44;;;;;;;;;;;;;;;;;;5008326;28;19916;-84
2021/12/14 12:09:28;;;;;;;;;;;;;;;;;;5012342;28;19909;-85
2021/12/14 12:11:56;;;;;;;;;;;;;;;;;;5022736;28;19970;-83
2021/12/14 12:14:23;;;;;;;;;;;;;;;;;;5007757;28;19938;-83
2021/12/14 12:16:49;;;;;;;;;;;;;;;;;;5008832;28;19917;-83
2021/12/14 12:19:15;;;;;;;;;;;;;;;;;;5013999;28;19923;-83
2021/12/14 12:21:41;;;;;;;;;;;;;;;;;;4995766;28;19921;-83
2021/12/14 12:24:07;;;;;;;;;;;;;;;;;;5008108;28;19917;-83
2021/12/14 12:26:35;;;;;;;;;;;;;;;;;;5008313;28;19913;-83
2021/12/14 12:29:02;;;;;;;;;;;;;;;;;;5004232;28;19916;-84
2021/12/14 12:31:29;;;;;;;;;;;;;;;;;;5022261;28;19921;-84
2021/12/14 12:33:56;;;;;;;;;;;;;;;;;;5007262;28;19920;-84
2021/12/14 12:36:22;;;;;;;;;;;;;;;;;;5023650;28;20885;-83
2021/12/14 12:38:49;;;;;;;;;;;;;;;;;;5014499;28;20132;-83
2021/12/14 12:41:16;;;;;;;;;;;;;;;;;;5004648;28;19924;-84
2021/12/14 12:43:43;;;;;;;;;;;;;;;;;;5019463;28;19927;-83
2021/12/14 12:46:10;;;;;;;;;;;;;;;;;;5004727;28;20015;-83
2021/12/14 12:48:37;;;;;;;;;;;;;;;;;;5022778;28;19920;-83
2021/12/14 12:51:03;;;;;;;;;;;;;;;;;;5017040;28;20006;-83
2021/12/14 12:53:29;;;;;;;;;;;;;;;;;;5001603;28;19941;-84
2021/12/14 12:55:55;;;;;;;;;;;;;;;;;;5014133;28;19959;-84
2021/12/14 12:58:21;;;;;;;;;;;;;;;;;;5002028;28;20571;-84
2021/12/14 13:00:47;;;;;;;;;;;;;;;;;;5001713;28;20038;-85
2021/12/14 13:03:13;;;;;;;;;;;;;;;;;;5021327;28;19935;-84
2021/12/14 13:05:41;;;;;;;;;;;;;;;;;;5021213;28;19956;-84
2021/12/14 13:08:08;;;;;;;;;;;;;;;;;;5006144;28;20268;-85
2021/12/14 13:10:34;;;;;;;;;;;;;;;;;;5025685;28;19917;-84
2021/12/14 13:13:01;;;;;;;;;;;;;;;;;;5004795;28;19928;-84
2021/12/14 13:15:27;;;;;;;;;;;;;;;;;;5006884;28;19916;-84
2021/12/14 13:17:53;;;;;;;;;;;;;;;;;;5001850;28;19916;-84
2021/12/14 13:20:19;;;;;;;;;;;;;;;;;;5026234;28;19920;-84
2021/12/14 13:22:46;;;;;;;;;;;;;;;;;;5022769;28;19990;-85
2021/12/14 13:25:12;;;;;;;;;;;;;;;;;;5007789;28;20029;-85
2021/12/14 13:27:38;;;;;;;;;;;;;;;;;;5016160;28;19917;-85
2021/12/14 13:30:05;;;;;;;;;;;;;;;;;;4994891;28;19913;-85
2021/12/14 13:32:33;;;;;;;;;;;;;;;;;;5031271;28;20014;-85
2021/12/14 13:34:59;;;;;;;;;;;;;;;;;;5023059;28;19923;-85
2021/12/14 13:37:27;;;;;;;;;;;;;;;;;;5022223;28;19920;-85
2021/12/14 13:39:53;;;;;;;;;;;;;;;;;;5020123;28;19924;-85
2021/12/14 13:42:19;;;;;;;;;;;;;;;;;;5007873;28;19974;-85
2021/12/14 13:44:48;;;;;;;;;;;;;;;;;;5005082;28;19925;-84
2021/12/14 13:47:16;;;;;;;;;;;;;;;;;;5027993;28;20367;-85
2021/12/14 13:49:43;;;;;;;;;;;;;;;;;;5027617;28;19950;-85
2021/12/14 13:52:09;;;;;;;;;;;;;;;;;;5026574;28;19927;-85
2021/12/14 13:54:35;;;;;;;;;;;;;;;;;;5018478;28;20265;-84
2021/12/14 13:57:01;;;;;;;;;;;;;;;;;;5013964;28;20057;-85
2021/12/14 13:59:27;;;;;;;;;;;;;;;;;;5015664;28;19923;-85
2021/12/14 14:01:53;;;;;;;;;;;;;;;;;;5004094;28;20003;-85
2021/12/14 14:04:19;;;;;;;;;;;;;;;;;;5018064;28;19921;-84
2021/12/14 14:06:45;;;;;;;;;;;;;;;;;;5032237;28;19916;-84
2021/12/14 14:09:13;;;;;;;;;;;;;;;;;;5028537;28;20036;-84
2021/12/14 14:11:40;;;;;;;;;;;;;;;;;;5009531;28;19917;-84
2021/12/14 14:14:06;;;;;;;;;;;;;;;;;;5003488;28;20450;-84
2021/12/14 14:16:33;;;;;;;;;;;;;;;;;;5022130;28;19920;-83
2021/12/14 14:19:00;;;;;;;;;;;;;;;;;;5004109;28;19921;-83
2021/12/14 14:21:26;;;;;;;;;;;;;;;;;;5008289;28;19913;-83
2021/12/14 14:23:53;;;;;;;;;;;;;;;;;;5001233;28;19917;-83
2021/12/14 14:26:20;;;;;;;;;;;;;;;;;;5021009;28;19953;-85
2021/12/14 14:28:47;;;;;;;;;;;;;;;;;;5016092;28;19952;-83
2021/12/14 14:31:15;;;;;;;;;;;;;;;;;;4995403;28;19917;-83
2021/12/14 14:33:42;;;;;;;;;;;;;;;;;;5023844;28;20196;-85
2021/12/14 14:36:09;;;;;;;;;;;;;;;;;;5025305;28;19916;-85
2021/12/14 14:38:36;;;;;;;;;;;;;;;;;;5025919;28;19923;-84
2021/12/14 14:41:03;;;;;;;;;;;;;;;;;;5022271;28;19924;-85
2021/12/14 14:43:29;;;;;;;;;;;;;;;;;;5006026;28;19924;-85
2021/12/14 14:45:56;;;;;;;;;;;;;;;;;;5027970;28;19936;-82
2021/12/14 14:48:27;;;;;;;;;;;;;;;;;;5021651;28;19924;-85
2021/12/14 14:50:54;;;;;;;;;;;;;;;;;;5031675;28;19924;-84
2021/12/14 14:53:21;;;;;;;;;;;;;;;;;;5033325;28;19942;-85
2021/12/14 14:55:47;;;;;;;;;;;;;;;;;;5020194;28;19947;-84
2021/12/14 14:58:16;;;;;;;;;;;;;;;;;;5026019;28;19917;-84
2021/12/14 15:00:43;;;;;;;;;;;;;;;;;;5007873;28;19917;-85
2021/12/14 15:03:10;;;;;;;;;;;;;;;;;;5018877;28;20149;-84
2021/12/14 15:05:36;;;;;;;;;;;;;;;;;;5024682;28;19916;-85
2021/12/14 15:08:02;;;;;;;;;;;;;;;;;;5001168;28;19921;-84
2021/12/14 15:10:29;;;;;;;;;;;;;;;;;;5021500;28;19962;-84
2021/12/14 15:12:55;;;;;;;;;;;;;;;;;;5002021;28;20005;-85
2021/12/14 15:15:24;;;;;;;;;;;;;;;;;;5022435;28;19935;-83
2021/12/14 15:17:51;;;;;;;;;;;;;;;;;;5001629;28;19919;-83
2021/12/14 15:20:17;;;;;;;;;;;;;;;;;;5003778;28;19917;-82
2021/12/14 15:22:43;;;;;;;;;;;;;;;;;;5000581;28;20256;-83
2021/12/14 15:25:11;;;;;;;;;;;;;;;;;;5005545;28;20016;-83
2021/12/14 15:27:37;;;;;;;;;;;;;;;;;;5025987;28;19986;-83
2021/12/14 15:30:06;;;;;;;;;;;;;;;;;;5019474;28;20587;-83
2021/12/14 15:32:36;;;;;;;;;;;;;;;;;;5022518;28;19917;-83
2021/12/14 15:35:02;;;;;;;;;;;;;;;;;;4974799;28;19924;-83
2021/12/14 15:37:28;;;;;;;;;;;;;;;;;;4963428;28;20017;-82
2021/12/14 15:39:55;;;;;;;;;;;;;;;;;;4962082;28;19922;-82
2021/12/14 15:42:21;;;;;;;;;;;;;;;;;;4978149;28;20742;-82
2021/12/14 15:44:48;;;;;;;;;;;;;;;;;;4972918;28;20726;-82
2021/12/14 15:47:14;;;;;;;;;;;;;;;;;;4980583;28;19924;-83
2021/12/14 15:49:41;;;;;;;;;;;;;;;;;;4974417;28;19932;-82
2021/12/14 15:52:07;;;;;;;;;;;;;;;;;;4959684;28;20383;-85
2021/12/14 15:54:36;;;;;;;;;;;;;;;;;;4966122;28;19921;-83
2021/12/14 15:57:08;;;;;;;;;;;;;;;;;;4960694;28;19913;-82
2021/12/14 15:59:38;;;;;;;;;;;;;;;;;;4976988;28;19976;-82
2021/12/14 16:02:04;;;;;;;;;;;;;;;;;;4973947;28;19925;-82
2021/12/14 16:04:32;;;;;;;;;;;;;;;;;;4976689;28;19921;-83
2021/12/14 16:06:59;;;;;;;;;;;;;;;;;;4971963;28;20418;-82
2021/12/14 16:09:27;;;;;;;;;;;;;;;;;;4972971;28;19967;-84
2021/12/14 16:15:06;;;;;;;;;;;;;;;;;;4974440;28;19910;-82
2021/12/14 16:17:30;;;;;;;;;;;;;;;;;;4953406;28;19933;-83
2021/12/14 16:19:56;;;;;;;;;;;;;;;;;;4973833;28;19917;-83
2021/12/14 16:22:22;;;;;;;;;;;;;;;;;;4972924;28;20092;-83
2021/12/14 16:24:48;;;;;;;;;;;;;;;;;;4959411;28;19975;-82
2021/12/14 16:27:14;;;;;;;;;;;;;;;;;;4984764;28;19913;-84
2021/12/14 16:29:40;;;;;;;;;;;;;;;;;;4977035;28;19921;-84
2021/12/14 16:32:06;;;;;;;;;;;;;;;;;;4975951;28;19922;-84
2021/12/14 16:34:34;;;;;;;;;;;;;;;;;;4981320;28;20654;-84
2021/12/14 16:37:00;;;;;;;;;;;;;;;;;;4978501;28;19921;-85
2021/12/14 16:39:26;;;;;;;;;;;;;;;;;;4981069;28;19917;-84
2021/12/14 16:41:53;;;;;;;;;;;;;;;;;;4982488;28;19909;-83
2021/12/14 16:44:22;;;;;;;;;;;;;;;;;;4979922;28;19960;-85
2021/12/14 16:46:48;;;;;;;;;;;;;;;;;;4974613;28;19964;-85
2021/12/14 16:49:16;;;;;;;;;;;;;;;;;;4980347;28;20009;-83
2021/12/14 16:51:43;;;;;;;;;;;;;;;;;;5019865;28;20379;-82
2021/12/14 16:54:11;;;;;;;;;;;;;;;;;;5001502;28;19924;-83
2021/12/14 16:56:37;;;;;;;;;;;;;;;;;;5021069;28;19921;-83
2021/12/14 16:59:06;;;;;;;;;;;;;;;;;;5014659;28;19921;-84
2021/12/14 17:01:32;;;;;;;;;;;;;;;;;;5001895;28;20278;-83
2021/12/14 17:03:58;;;;;;;;;;;;;;;;;;4994742;28;19921;-84
2021/12/14 17:06:29;;;;;;;;;;;;;;;;;;5019331;28;20367;-84
2021/12/14 17:08:59;;;;;;;;;;;;;;;;;;5016615;28;19915;-83
2021/12/14 17:11:25;;;;;;;;;;;;;;;;;;4993424;28;20020;-84
2021/12/14 17:13:54;;;;;;;;;;;;;;;;;;5018923;28;19924;-83
2021/12/14 17:16:22;;;;;;;;;;;;;;;;;;5001890;28;19921;-83
2021/12/14 17:18:48;;;;;;;;;;;;;;;;;;4999384;28;20019;-84